Strona główna
METAR-TAF:

METAR-TAF

Lotnisko :

Port lotniczy Bolonia

Bolonia, Włochy

Szerokość geograficzna: 44-32N, Długość geograficzna: 011-18E, wysokość: 36 m

Aktualna obserwacja pogody

Raport powstał 26 minut temu, godzina 11:50 UTC
Wiatr 6 kt od północny wschód, zmienny między północ i wschód
Temperatura 16°C
Wilgotność 63%
Ciśnienie 1020 hPa
Widzialność 10 km lub więcej
Brak chmur poniżej 1500 m i brak chmur cumulonimbus

METAR: LIPE 241150Z 04006KT 010V080 CAVOK 16/09 Q1020

czas: 13:16 (12:16 UTC)

Prognoza

Raport powstał 1 godzina i 16 minut temu, godzina 11:00 UTC
Prognoza ważna od 24 godzina 12 UTC do 25 godzina 12 UTC
Wiatr 5 kt z kierunków zmiennych
Widzialność: 8000 m
Stopniowe zmiany
od 24 godzina 18 UTC do 24 godzina 20 UTC
Widzialność: 2000 m
zamglenie

TAF: LIPE 241100Z 2412/2512 VRB05KT 8000 NSC BECMG 2418/2420 2000 BR

Obserwacja i prognoza pogody dla ponad 4000 lotnisk (raport METAR i TAF).

Dostępne stacje oznaczono żółtymi i czerwonymi punktami na mapie.

Najedź kursorem aby zobaczyć nazwę stacji.

Kliknij aby zobaczyć obserwacje i prognozy pogody.

Aby zmienić mapę: kliknij na zielony przycisk z czarnym krzyżykiem, aby powiększyć; na zielony przycisk z myślnikiem, aby pomniejszyć; na zielone strzałki, aby przejść do map sąsiednich.


METAR-TAF: